createdAt,value
2019-02-12T00:05:52.544Z,98.36
2019-02-12T00:15:51.323Z,98.76
2019-02-12T00:25:53.288Z,98.92
2019-02-12T00:35:51.282Z,98.46
2019-02-12T00:45:51.320Z,98.77
2019-02-12T00:55:51.306Z,98.70
2019-02-12T01:05:51.302Z,98.35
2019-02-12T01:15:52.324Z,98.59
2019-02-12T01:25:51.279Z,98.15
2019-02-12T01:35:51.309Z,98.83
2019-02-12T01:45:51.466Z,99.04
2019-02-12T01:55:51.287Z,98.42
2019-02-12T02:05:51.541Z,98.79
2019-02-12T02:15:51.303Z,97.85
2019-02-12T02:25:51.272Z,97.81
2019-02-12T02:35:51.638Z,97.64
2019-02-12T02:45:51.288Z,97.95
2019-02-12T02:55:51.402Z,97.66
2019-02-12T03:05:51.218Z,98.45
2019-02-12T03:15:51.265Z,99.35
2019-02-12T03:25:51.259Z,98.81
2019-02-12T03:35:51.290Z,98.78
2019-02-12T03:45:51.346Z,98.36
2019-02-12T03:55:51.267Z,98.63
2019-02-12T04:05:51.396Z,99.30
2019-02-12T04:15:51.344Z,99.73
2019-02-12T04:25:51.183Z,99.63
2019-02-12T04:35:51.236Z,99.90
2019-02-12T04:45:51.528Z,100.00
2019-02-12T04:55:51.233Z,100.00
2019-02-12T05:05:52.249Z,100.00
2019-02-12T05:15:51.243Z,100.00
2019-02-12T05:25:51.321Z,100.00
2019-02-12T05:35:52.331Z,100.00
2019-02-12T05:45:51.246Z,100.00
2019-02-12T05:55:51.269Z,99.71
2019-02-12T06:05:58.466Z,98.84
2019-02-12T06:15:51.230Z,98.34
2019-02-12T06:25:51.217Z,98.49
2019-02-12T06:35:51.278Z,98.31
2019-02-12T06:45:51.283Z,98.15
2019-02-12T06:55:51.341Z,97.97
2019-02-12T07:05:51.265Z,97.44
2019-02-12T07:15:51.280Z,97.54
2019-02-12T07:25:58.868Z,97.37
2019-02-12T07:45:52.992Z,97.25
2019-02-12T07:55:52.642Z,97.86
2019-02-12T08:05:56.385Z,98.61
2019-02-12T08:15:52.636Z,98.01
2019-02-12T08:25:52.645Z,97.93
2019-02-12T08:35:57.283Z,98.00
2019-02-12T08:45:52.665Z,97.92
2019-02-12T08:55:52.677Z,97.54
2019-02-12T09:05:54.099Z,96.84
2019-02-12T09:15:52.668Z,96.40
2019-02-12T09:25:52.674Z,96.23
2019-02-12T09:35:52.608Z,96.10
2019-02-12T09:45:52.629Z,95.27
2019-02-12T09:55:56.055Z,93.80
2019-02-12T10:05:52.642Z,92.96
2019-02-12T10:15:52.442Z,92.14
2019-02-12T10:25:52.596Z,92.94
2019-02-12T10:35:52.426Z,93.14
2019-02-12T10:45:52.495Z,92.10
2019-02-12T10:55:52.646Z,89.17
2019-02-12T11:05:52.485Z,89.23
2019-02-12T11:15:52.606Z,88.48
2019-02-12T11:25:52.615Z,87.89
2019-02-12T11:35:52.521Z,85.50
2019-02-12T11:45:52.639Z,84.59
2019-02-12T11:55:52.555Z,84.80
2019-02-12T12:05:54.443Z,81.54
2019-02-12T12:15:52.455Z,80.99
2019-02-12T12:25:52.611Z,80.09
2019-02-12T12:35:53.516Z,80.83
2019-02-12T12:45:52.814Z,80.45
2019-02-12T12:55:53.473Z,77.47
2019-02-12T13:05:52.535Z,70.91
2019-02-12T13:15:52.457Z,72.47
2019-02-12T13:25:52.522Z,73.12
2019-02-12T13:35:54.124Z,70.75
2019-02-12T13:45:52.608Z,69.38
2019-02-12T13:55:53.155Z,71.42
2019-02-12T14:05:52.447Z,71.67
2019-02-12T14:15:52.577Z,71.51
2019-02-12T14:25:52.433Z,74.19
2019-02-12T14:35:52.546Z,75.30
2019-02-12T14:45:52.570Z,76.35
2019-02-12T14:55:52.481Z,77.75
2019-02-12T15:05:53.226Z,76.07
2019-02-12T15:15:53.242Z,75.52
2019-02-12T15:25:52.637Z,76.29
2019-02-12T15:35:52.601Z,78.80
2019-02-12T15:45:53.478Z,77.45
2019-02-12T15:55:52.586Z,77.43
2019-02-12T16:05:52.486Z,78.89
2019-02-12T16:15:52.487Z,79.90
2019-02-12T16:25:59.331Z,80.40
2019-02-12T16:35:52.552Z,80.57
2019-02-12T16:45:52.961Z,79.62
2019-02-12T16:55:52.519Z,78.29
2019-02-12T17:05:53.323Z,77.75
2019-02-12T17:15:53.414Z,78.46
2019-02-12T17:25:52.566Z,79.13
2019-02-12T17:35:52.502Z,79.75
2019-02-12T17:45:52.685Z,80.23
2019-02-12T17:55:52.539Z,80.16
2019-02-12T18:05:53.634Z,80.18
2019-02-12T18:15:52.431Z,80.74
2019-02-12T18:25:52.556Z,79.62
2019-02-12T18:35:52.548Z,79.42
2019-02-12T18:45:52.497Z,79.76
2019-02-12T18:55:52.504Z,79.41
2019-02-12T19:05:52.640Z,80.00
2019-02-12T19:15:52.532Z,79.84
2019-02-12T19:25:52.419Z,79.96
2019-02-12T19:35:52.499Z,80.69
2019-02-12T19:45:52.468Z,80.81
2019-02-12T19:55:52.559Z,81.44
2019-02-12T20:05:52.363Z,83.12
2019-02-12T20:15:52.389Z,83.99
2019-02-12T20:25:52.371Z,86.00
2019-02-12T20:35:52.661Z,87.46
2019-02-12T20:45:52.610Z,87.79
2019-02-12T20:55:52.451Z,87.90
2019-02-12T21:05:52.337Z,88.23
2019-02-12T21:15:52.471Z,88.49
2019-02-12T21:25:52.444Z,88.61
2019-02-12T21:35:52.435Z,87.71
2019-02-12T21:45:52.526Z,87.62
2019-02-12T21:55:52.382Z,87.76
2019-02-12T22:05:52.327Z,87.81
2019-02-12T22:15:53.515Z,87.71
2019-02-12T22:25:52.491Z,86.71
2019-02-12T22:35:52.341Z,86.65
2019-02-12T22:45:52.474Z,86.49
2019-02-12T22:55:52.411Z,86.00
2019-02-12T23:05:52.357Z,86.31
2019-02-12T23:15:52.789Z,87.23
2019-02-12T23:25:52.394Z,87.57
2019-02-12T23:45:58.491Z,88.79
2019-02-12T23:55:58.335Z,88.78
